sensor_id;sensor_type;location;lat;lon;timestamp;P1;durP1;ratioP1;P2;durP2;ratioP2
68475;SDS011;55464;48.266;14.188;2022-12-18T00:01:57;63.30;;;25.38;;
68475;SDS011;55464;48.266;14.188;2022-12-18T00:04:27;56.92;;;24.42;;
68475;SDS011;55464;48.266;14.188;2022-12-18T00:06:52;58.30;;;24.98;;
68475;SDS011;55464;48.266;14.188;2022-12-18T00:09:18;61.17;;;23.55;;
68475;SDS011;55464;48.266;14.188;2022-12-18T00:11:45;55.10;;;23.73;;
68475;SDS011;55464;48.266;14.188;2022-12-18T00:14:11;57.53;;;24.13;;
68475;SDS011;55464;48.266;14.188;2022-12-18T00:16:38;53.75;;;23.15;;
68475;SDS011;55464;48.266;14.188;2022-12-18T00:19:04;61.50;;;24.52;;
68475;SDS011;55464;48.266;14.188;2022-12-18T00:21:31;61.63;;;25.50;;
68475;SDS011;55464;48.266;14.188;2022-12-18T00:23:57;74.65;;;28.20;;
68475;SDS011;55464;48.266;14.188;2022-12-18T00:26:28;63.92;;;24.75;;
68475;SDS011;55464;48.266;14.188;2022-12-18T00:29:14;71.97;;;25.42;;
68475;SDS011;55464;48.266;14.188;2022-12-18T00:31:40;85.50;;;27.15;;
68475;SDS011;55464;48.266;14.188;2022-12-18T00:34:09;87.47;;;28.98;;
68475;SDS011;55464;48.266;14.188;2022-12-18T00:36:37;78.75;;;29.00;;
68475;SDS011;55464;48.266;14.188;2022-12-18T00:39:04;101.93;;;30.30;;
68475;SDS011;55464;48.266;14.188;2022-12-18T00:41:30;89.15;;;27.67;;
68475;SDS011;55464;48.266;14.188;2022-12-18T00:44:15;105.22;;;33.15;;
68475;SDS011;55464;48.266;14.188;2022-12-18T00:46:42;112.95;;;31.95;;
68475;SDS011;55464;48.266;14.188;2022-12-18T00:49:09;90.35;;;28.00;;
68475;SDS011;55464;48.266;14.188;2022-12-18T00:51:38;73.00;;;26.50;;
68475;SDS011;55464;48.266;14.188;2022-12-18T00:54:04;67.45;;;25.58;;
68475;SDS011;55464;48.266;14.188;2022-12-18T00:56:30;61.13;;;25.27;;
68475;SDS011;55464;48.266;14.188;2022-12-18T00:58:56;72.25;;;26.75;;
68475;SDS011;55464;48.266;14.188;2022-12-18T01:01:21;80.20;;;27.05;;
68475;SDS011;55464;48.266;14.188;2022-12-18T01:03:47;85.18;;;28.80;;
68475;SDS011;55464;48.266;14.188;2022-12-18T01:06:13;90.10;;;28.27;;
68475;SDS011;55464;48.266;14.188;2022-12-18T01:08:40;98.30;;;30.52;;
68475;SDS011;55464;48.266;14.188;2022-12-18T01:11:13;88.80;;;28.10;;
68475;SDS011;55464;48.266;14.188;2022-12-18T01:13:41;132.60;;;33.30;;
68475;SDS011;55464;48.266;14.188;2022-12-18T01:16:07;130.45;;;35.25;;
68475;SDS011;55464;48.266;14.188;2022-12-18T01:18:34;124.32;;;37.60;;
68475;SDS011;55464;48.266;14.188;2022-12-18T01:21:00;120.78;;;35.38;;
68475;SDS011;55464;48.266;14.188;2022-12-18T01:23:25;124.82;;;35.70;;
68475;SDS011;55464;48.266;14.188;2022-12-18T01:25:51;140.20;;;37.58;;
68475;SDS011;55464;48.266;14.188;2022-12-18T01:28:17;135.63;;;35.25;;
68475;SDS011;55464;48.266;14.188;2022-12-18T01:30:42;113.25;;;32.42;;
68475;SDS011;55464;48.266;14.188;2022-12-18T01:33:08;108.63;;;32.70;;
68475;SDS011;55464;48.266;14.188;2022-12-18T01:35:41;113.22;;;32.67;;
68475;SDS011;55464;48.266;14.188;2022-12-18T01:38:07;112.45;;;32.72;;
68475;SDS011;55464;48.266;14.188;2022-12-18T01:40:33;96.03;;;30.13;;
68475;SDS011;55464;48.266;14.188;2022-12-18T01:42:58;105.07;;;30.35;;
68475;SDS011;55464;48.266;14.188;2022-12-18T01:45:26;102.68;;;29.98;;
68475;SDS011;55464;48.266;14.188;2022-12-18T01:47:54;91.75;;;30.73;;
68475;SDS011;55464;48.266;14.188;2022-12-18T01:50:32;101.65;;;30.45;;
68475;SDS011;55464;48.266;14.188;2022-12-18T01:53:03;94.50;;;29.50;;
68475;SDS011;55464;48.266;14.188;2022-12-18T01:55:57;117.93;;;31.77;;
68475;SDS011;55464;48.266;14.188;2022-12-18T01:58:28;98.10;;;30.45;;
68475;SDS011;55464;48.266;14.188;2022-12-18T02:00:59;112.50;;;34.05;;
68475;SDS011;55464;48.266;14.188;2022-12-18T02:03:25;117.32;;;33.58;;
68475;SDS011;55464;48.266;14.188;2022-12-18T02:05:57;105.65;;;32.17;;
68475;SDS011;55464;48.266;14.188;2022-12-18T02:08:30;102.55;;;32.22;;
68475;SDS011;55464;48.266;14.188;2022-12-18T02:19:16;87.47;;;29.75;;
68475;SDS011;55464;48.266;14.188;2022-12-18T02:25:08;109.43;;;31.90;;
68475;SDS011;55464;48.266;14.188;2022-12-18T02:27:42;117.53;;;31.35;;
68475;SDS011;55464;48.266;14.188;2022-12-18T02:30:10;93.03;;;29.98;;
68475;SDS011;55464;48.266;14.188;2022-12-18T02:32:38;105.20;;;33.67;;
68475;SDS011;55464;48.266;14.188;2022-12-18T02:35:08;107.43;;;30.67;;
68475;SDS011;55464;48.266;14.188;2022-12-18T02:37:37;115.15;;;31.98;;
68475;SDS011;55464;48.266;14.188;2022-12-18T02:40:05;102.65;;;31.50;;
68475;SDS011;55464;48.266;14.188;2022-12-18T02:42:32;122.13;;;34.15;;
68475;SDS011;55464;48.266;14.188;2022-12-18T02:44:58;148.35;;;35.55;;
68475;SDS011;55464;48.266;14.188;2022-12-18T02:47:25;120.60;;;34.30;;
68475;SDS011;55464;48.266;14.188;2022-12-18T02:52:31;122.70;;;32.08;;
68475;SDS011;55464;48.266;14.188;2022-12-18T03:00:37;108.10;;;31.52;;
68475;SDS011;55464;48.266;14.188;2022-12-18T03:03:25;111.25;;;32.63;;
68475;SDS011;55464;48.266;14.188;2022-12-18T03:06:10;125.88;;;32.65;;
68475;SDS011;55464;48.266;14.188;2022-12-18T03:08:41;115.43;;;30.55;;
68475;SDS011;55464;48.266;14.188;2022-12-18T03:11:11;115.50;;;32.33;;
68475;SDS011;55464;48.266;14.188;2022-12-18T03:16:24;134.73;;;36.42;;
68475;SDS011;55464;48.266;14.188;2022-12-18T03:19:02;145.02;;;37.60;;
68475;SDS011;55464;48.266;14.188;2022-12-18T03:21:40;157.90;;;37.30;;
68475;SDS011;55464;48.266;14.188;2022-12-18T03:24:12;143.50;;;38.08;;
68475;SDS011;55464;48.266;14.188;2022-12-18T03:26:41;140.73;;;37.40;;
68475;SDS011;55464;48.266;14.188;2022-12-18T03:29:12;130.57;;;36.20;;
68475;SDS011;55464;48.266;14.188;2022-12-18T03:31:45;132.40;;;36.58;;
68475;SDS011;55464;48.266;14.188;2022-12-18T03:34:40;132.88;;;35.08;;
68475;SDS011;55464;48.266;14.188;2022-12-18T03:37:06;138.30;;;35.95;;
68475;SDS011;55464;48.266;14.188;2022-12-18T03:39:33;140.38;;;35.63;;
68475;SDS011;55464;48.266;14.188;2022-12-18T03:47:25;101.70;;;29.15;;
68475;SDS011;55464;48.266;14.188;2022-12-18T03:55:48;87.35;;;27.75;;
68475;SDS011;55464;48.266;14.188;2022-12-18T03:58:17;102.68;;;29.67;;
68475;SDS011;55464;48.266;14.188;2022-12-18T04:00:45;113.55;;;29.85;;
68475;SDS011;55464;48.266;14.188;2022-12-18T04:03:14;104.63;;;29.88;;
68475;SDS011;55464;48.266;14.188;2022-12-18T04:05:41;109.10;;;29.88;;
68475;SDS011;55464;48.266;14.188;2022-12-18T04:08:08;91.88;;;27.15;;
68475;SDS011;55464;48.266;14.188;2022-12-18T04:10:37;83.68;;;26.70;;
68475;SDS011;55464;48.266;14.188;2022-12-18T04:13:02;90.90;;;26.02;;
68475;SDS011;55464;48.266;14.188;2022-12-18T04:15:28;85.30;;;23.02;;
68475;SDS011;55464;48.266;14.188;2022-12-18T04:17:54;73.28;;;22.40;;
68475;SDS011;55464;48.266;14.188;2022-12-18T04:20:19;72.40;;;22.85;;
68475;SDS011;55464;48.266;14.188;2022-12-18T04:22:45;69.43;;;20.65;;
68475;SDS011;55464;48.266;14.188;2022-12-18T04:25:11;56.80;;;18.33;;
68475;SDS011;55464;48.266;14.188;2022-12-18T04:27:37;55.75;;;18.13;;
68475;SDS011;55464;48.266;14.188;2022-12-18T04:30:03;52.08;;;18.40;;
68475;SDS011;55464;48.266;14.188;2022-12-18T04:32:29;56.75;;;16.92;;
68475;SDS011;55464;48.266;14.188;2022-12-18T04:34:55;54.38;;;17.15;;
68475;SDS011;55464;48.266;14.188;2022-12-18T04:37:21;42.67;;;15.88;;
68475;SDS011;55464;48.266;14.188;2022-12-18T04:39:46;61.30;;;18.77;;
68475;SDS011;55464;48.266;14.188;2022-12-18T04:42:12;54.30;;;17.17;;
68475;SDS011;55464;48.266;14.188;2022-12-18T04:44:38;49.58;;;16.80;;
68475;SDS011;55464;48.266;14.188;2022-12-18T04:47:03;46.08;;;16.30;;
68475;SDS011;55464;48.266;14.188;2022-12-18T04:49:29;43.88;;;16.55;;
68475;SDS011;55464;48.266;14.188;2022-12-18T04:51:55;44.83;;;15.45;;
68475;SDS011;55464;48.266;14.188;2022-12-18T04:54:20;44.03;;;15.38;;
68475;SDS011;55464;48.266;14.188;2022-12-18T04:56:46;37.92;;;14.75;;
68475;SDS011;55464;48.266;14.188;2022-12-18T04:59:12;46.13;;;16.83;;
68475;SDS011;55464;48.266;14.188;2022-12-18T05:01:38;40.78;;;15.27;;
68475;SDS011;55464;48.266;14.188;2022-12-18T05:04:03;48.67;;;17.58;;
68475;SDS011;55464;48.266;14.188;2022-12-18T05:06:29;45.50;;;16.88;;
68475;SDS011;55464;48.266;14.188;2022-12-18T05:08:55;45.55;;;16.00;;
68475;SDS011;55464;48.266;14.188;2022-12-18T05:11:20;41.63;;;16.70;;
68475;SDS011;55464;48.266;14.188;2022-12-18T05:13:46;44.10;;;16.00;;
68475;SDS011;55464;48.266;14.188;2022-12-18T05:16:12;37.67;;;16.15;;
68475;SDS011;55464;48.266;14.188;2022-12-18T05:18:39;37.03;;;14.82;;
68475;SDS011;55464;48.266;14.188;2022-12-18T05:21:05;36.13;;;15.23;;
68475;SDS011;55464;48.266;14.188;2022-12-18T05:23:30;39.50;;;15.35;;
68475;SDS011;55464;48.266;14.188;2022-12-18T05:26:00;44.00;;;14.68;;
68475;SDS011;55464;48.266;14.188;2022-12-18T05:28:28;42.17;;;15.63;;
68475;SDS011;55464;48.266;14.188;2022-12-18T05:30:55;39.80;;;14.43;;
68475;SDS011;55464;48.266;14.188;2022-12-18T05:33:23;46.28;;;14.52;;
68475;SDS011;55464;48.266;14.188;2022-12-18T05:35:50;37.92;;;13.68;;
68475;SDS011;55464;48.266;14.188;2022-12-18T05:38:18;38.70;;;15.15;;
68475;SDS011;55464;48.266;14.188;2022-12-18T05:40:44;44.58;;;16.17;;
68475;SDS011;55464;48.266;14.188;2022-12-18T05:43:10;38.67;;;14.88;;
68475;SDS011;55464;48.266;14.188;2022-12-18T05:45:39;40.88;;;14.75;;
68475;SDS011;55464;48.266;14.188;2022-12-18T05:48:05;39.30;;;14.93;;
68475;SDS011;55464;48.266;14.188;2022-12-18T05:50:33;40.88;;;15.65;;
68475;SDS011;55464;48.266;14.188;2022-12-18T05:53:03;41.38;;;14.70;;
68475;SDS011;55464;48.266;14.188;2022-12-18T05:55:32;44.10;;;14.85;;
68475;SDS011;55464;48.266;14.188;2022-12-18T05:58:02;35.53;;;14.75;;
68475;SDS011;55464;48.266;14.188;2022-12-18T06:00:29;36.97;;;13.20;;
68475;SDS011;55464;48.266;14.188;2022-12-18T06:02:55;31.05;;;12.40;;
68475;SDS011;55464;48.266;14.188;2022-12-18T06:05:21;35.38;;;12.95;;
68475;SDS011;55464;48.266;14.188;2022-12-18T06:07:46;41.88;;;13.75;;
68475;SDS011;55464;48.266;14.188;2022-12-18T06:10:12;36.95;;;11.80;;
68475;SDS011;55464;48.266;14.188;2022-12-18T06:12:38;39.60;;;11.60;;
68475;SDS011;55464;48.266;14.188;2022-12-18T06:15:03;32.25;;;12.50;;
68475;SDS011;55464;48.266;14.188;2022-12-18T06:17:30;31.60;;;12.32;;
68475;SDS011;55464;48.266;14.188;2022-12-18T06:19:57;31.00;;;12.23;;
68475;SDS011;55464;48.266;14.188;2022-12-18T06:22:22;33.80;;;13.35;;
68475;SDS011;55464;48.266;14.188;2022-12-18T06:24:48;31.17;;;12.02;;
68475;SDS011;55464;48.266;14.188;2022-12-18T06:27:14;31.00;;;10.95;;
68475;SDS011;55464;48.266;14.188;2022-12-18T06:29:39;25.30;;;9.77;;
68475;SDS011;55464;48.266;14.188;2022-12-18T06:32:05;30.17;;;11.75;;
68475;SDS011;55464;48.266;14.188;2022-12-18T06:34:31;35.25;;;12.80;;
68475;SDS011;55464;48.266;14.188;2022-12-18T06:36:58;28.58;;;12.30;;
68475;SDS011;55464;48.266;14.188;2022-12-18T06:39:24;29.05;;;11.85;;
68475;SDS011;55464;48.266;14.188;2022-12-18T06:41:52;35.45;;;12.40;;
68475;SDS011;55464;48.266;14.188;2022-12-18T06:44:17;31.45;;;12.85;;
68475;SDS011;55464;48.266;14.188;2022-12-18T06:46:43;29.92;;;11.70;;
68475;SDS011;55464;48.266;14.188;2022-12-18T06:49:09;29.45;;;10.65;;
68475;SDS011;55464;48.266;14.188;2022-12-18T06:51:35;30.65;;;11.80;;
68475;SDS011;55464;48.266;14.188;2022-12-18T06:54:00;33.50;;;12.25;;
68475;SDS011;55464;48.266;14.188;2022-12-18T06:56:27;24.23;;;11.07;;
68475;SDS011;55464;48.266;14.188;2022-12-18T06:58:53;27.02;;;11.05;;
68475;SDS011;55464;48.266;14.188;2022-12-18T07:01:19;25.95;;;10.02;;
68475;SDS011;55464;48.266;14.188;2022-12-18T07:03:45;28.95;;;11.25;;
68475;SDS011;55464;48.266;14.188;2022-12-18T07:06:15;25.67;;;10.35;;
68475;SDS011;55464;48.266;14.188;2022-12-18T07:08:42;25.55;;;11.15;;
68475;SDS011;55464;48.266;14.188;2022-12-18T07:11:08;24.52;;;9.50;;
68475;SDS011;55464;48.266;14.188;2022-12-18T07:13:34;25.98;;;10.57;;
68475;SDS011;55464;48.266;14.188;2022-12-18T07:16:03;26.17;;;10.35;;
68475;SDS011;55464;48.266;14.188;2022-12-18T07:18:33;25.88;;;10.20;;
68475;SDS011;55464;48.266;14.188;2022-12-18T07:21:02;23.85;;;9.57;;
68475;SDS011;55464;48.266;14.188;2022-12-18T07:23:29;21.20;;;9.00;;
68475;SDS011;55464;48.266;14.188;2022-12-18T07:26:06;23.83;;;11.00;;
68475;SDS011;55464;48.266;14.188;2022-12-18T07:28:36;24.95;;;11.20;;
68475;SDS011;55464;48.266;14.188;2022-12-18T07:31:06;25.88;;;10.55;;
68475;SDS011;55464;48.266;14.188;2022-12-18T07:33:33;21.88;;;10.55;;
68475;SDS011;55464;48.266;14.188;2022-12-18T07:36:00;24.42;;;10.57;;
68475;SDS011;55464;48.266;14.188;2022-12-18T07:38:26;21.15;;;10.55;;
68475;SDS011;55464;48.266;14.188;2022-12-18T07:40:51;25.13;;;10.30;;
68475;SDS011;55464;48.266;14.188;2022-12-18T07:43:17;25.30;;;11.90;;
68475;SDS011;55464;48.266;14.188;2022-12-18T07:45:43;20.67;;;10.25;;
68475;SDS011;55464;48.266;14.188;2022-12-18T07:48:09;26.33;;;10.02;;
68475;SDS011;55464;48.266;14.188;2022-12-18T07:50:35;18.27;;;8.70;;
68475;SDS011;55464;48.266;14.188;2022-12-18T07:53:00;24.65;;;10.00;;
68475;SDS011;55464;48.266;14.188;2022-12-18T07:55:30;19.60;;;9.30;;
68475;SDS011;55464;48.266;14.188;2022-12-18T07:57:56;22.33;;;8.18;;
68475;SDS011;55464;48.266;14.188;2022-12-18T08:00:22;22.00;;;8.95;;
68475;SDS011;55464;48.266;14.188;2022-12-18T08:02:48;25.23;;;9.88;;
68475;SDS011;55464;48.266;14.188;2022-12-18T08:05:14;23.30;;;9.63;;
68475;SDS011;55464;48.266;14.188;2022-12-18T08:07:39;18.60;;;8.52;;
68475;SDS011;55464;48.266;14.188;2022-12-18T08:10:05;18.23;;;9.00;;
68475;SDS011;55464;48.266;14.188;2022-12-18T08:12:31;21.20;;;8.88;;
68475;SDS011;55464;48.266;14.188;2022-12-18T08:14:57;18.98;;;8.93;;
68475;SDS011;55464;48.266;14.188;2022-12-18T08:17:23;27.70;;;10.93;;
68475;SDS011;55464;48.266;14.188;2022-12-18T08:19:49;17.58;;;8.15;;
68475;SDS011;55464;48.266;14.188;2022-12-18T08:22:14;19.92;;;8.55;;
68475;SDS011;55464;48.266;14.188;2022-12-18T08:24:40;15.77;;;8.00;;
68475;SDS011;55464;48.266;14.188;2022-12-18T08:27:06;18.80;;;8.38;;
68475;SDS011;55464;48.266;14.188;2022-12-18T08:29:31;18.30;;;7.97;;
68475;SDS011;55464;48.266;14.188;2022-12-18T08:31:57;15.15;;;8.45;;
68475;SDS011;55464;48.266;14.188;2022-12-18T08:34:23;19.48;;;9.43;;
68475;SDS011;55464;48.266;14.188;2022-12-18T08:36:48;22.63;;;9.93;;
68475;SDS011;55464;48.266;14.188;2022-12-18T08:39:14;21.15;;;9.57;;
68475;SDS011;55464;48.266;14.188;2022-12-18T08:41:40;22.40;;;9.75;;
68475;SDS011;55464;48.266;14.188;2022-12-18T08:44:07;19.20;;;8.57;;
68475;SDS011;55464;48.266;14.188;2022-12-18T08:46:51;24.95;;;10.30;;
68475;SDS011;55464;48.266;14.188;2022-12-18T08:49:17;23.42;;;9.68;;
68475;SDS011;55464;48.266;14.188;2022-12-18T08:51:42;23.05;;;10.68;;
68475;SDS011;55464;48.266;14.188;2022-12-18T08:54:09;30.92;;;10.77;;
68475;SDS011;55464;48.266;14.188;2022-12-18T08:56:37;22.23;;;10.07;;
68475;SDS011;55464;48.266;14.188;2022-12-18T08:59:03;27.48;;;11.50;;
68475;SDS011;55464;48.266;14.188;2022-12-18T09:01:29;24.13;;;9.43;;
68475;SDS011;55464;48.266;14.188;2022-12-18T09:03:55;20.73;;;10.00;;
68475;SDS011;55464;48.266;14.188;2022-12-18T09:06:21;23.98;;;9.80;;
68475;SDS011;55464;48.266;14.188;2022-12-18T09:08:47;21.67;;;9.70;;
68475;SDS011;55464;48.266;14.188;2022-12-18T09:11:15;19.25;;;9.10;;
68475;SDS011;55464;48.266;14.188;2022-12-18T09:13:45;23.17;;;10.00;;
68475;SDS011;55464;48.266;14.188;2022-12-18T09:16:11;26.30;;;9.90;;
68475;SDS011;55464;48.266;14.188;2022-12-18T09:18:36;21.35;;;8.88;;
68475;SDS011;55464;48.266;14.188;2022-12-18T09:23:56;21.20;;;10.23;;
68475;SDS011;55464;48.266;14.188;2022-12-18T09:26:22;17.85;;;9.20;;
68475;SDS011;55464;48.266;14.188;2022-12-18T09:28:49;18.88;;;8.73;;
68475;SDS011;55464;48.266;14.188;2022-12-18T09:31:15;18.92;;;9.00;;
68475;SDS011;55464;48.266;14.188;2022-12-18T09:33:42;21.85;;;9.07;;
68475;SDS011;55464;48.266;14.188;2022-12-18T09:36:10;17.83;;;9.40;;
68475;SDS011;55464;48.266;14.188;2022-12-18T09:38:38;19.02;;;9.25;;
68475;SDS011;55464;48.266;14.188;2022-12-18T09:43:48;21.80;;;10.13;;
68475;SDS011;55464;48.266;14.188;2022-12-18T09:46:19;21.17;;;10.48;;
68475;SDS011;55464;48.266;14.188;2022-12-18T09:48:52;20.92;;;8.88;;
68475;SDS011;55464;48.266;14.188;2022-12-18T09:51:27;22.50;;;8.70;;
68475;SDS011;55464;48.266;14.188;2022-12-18T09:53:58;16.35;;;8.07;;
68475;SDS011;55464;48.266;14.188;2022-12-18T09:56:29;17.55;;;7.80;;
68475;SDS011;55464;48.266;14.188;2022-12-18T09:59:09;18.92;;;8.60;;
68475;SDS011;55464;48.266;14.188;2022-12-18T10:01:46;17.05;;;8.48;;
68475;SDS011;55464;48.266;14.188;2022-12-18T10:04:12;19.33;;;9.68;;
68475;SDS011;55464;48.266;14.188;2022-12-18T10:06:49;26.33;;;10.90;;
68475;SDS011;55464;48.266;14.188;2022-12-18T10:09:24;21.85;;;10.52;;
68475;SDS011;55464;48.266;14.188;2022-12-18T10:20:01;22.85;;;11.02;;
68475;SDS011;55464;48.266;14.188;2022-12-18T10:25:17;25.77;;;11.20;;
68475;SDS011;55464;48.266;14.188;2022-12-18T10:27:44;24.02;;;10.52;;
68475;SDS011;55464;48.266;14.188;2022-12-18T10:30:14;33.85;;;11.98;;
68475;SDS011;55464;48.266;14.188;2022-12-18T10:32:41;25.25;;;11.13;;
68475;SDS011;55464;48.266;14.188;2022-12-18T10:35:11;30.67;;;12.18;;
68475;SDS011;55464;48.266;14.188;2022-12-18T10:38:04;24.15;;;10.40;;
68475;SDS011;55464;48.266;14.188;2022-12-18T10:40:49;27.67;;;10.90;;
68475;SDS011;55464;48.266;14.188;2022-12-18T10:43:22;26.13;;;11.05;;
68475;SDS011;55464;48.266;14.188;2022-12-18T10:48:33;24.40;;;10.82;;
68475;SDS011;55464;48.266;14.188;2022-12-18T10:51:01;21.45;;;10.45;;
68475;SDS011;55464;48.266;14.188;2022-12-18T10:53:29;22.88;;;10.73;;
68475;SDS011;55464;48.266;14.188;2022-12-18T10:55:57;21.35;;;10.75;;
68475;SDS011;55464;48.266;14.188;2022-12-18T10:58:31;22.42;;;10.00;;
68475;SDS011;55464;48.266;14.188;2022-12-18T11:06:21;22.65;;;10.80;;
68475;SDS011;55464;48.266;14.188;2022-12-18T11:11:48;17.85;;;8.20;;
68475;SDS011;55464;48.266;14.188;2022-12-18T11:14:27;19.60;;;9.13;;
68475;SDS011;55464;48.266;14.188;2022-12-18T11:16:57;16.25;;;8.05;;
68475;SDS011;55464;48.266;14.188;2022-12-18T11:19:37;18.85;;;8.45;;
68475;SDS011;55464;48.266;14.188;2022-12-18T11:22:21;18.83;;;8.05;;
68475;SDS011;55464;48.266;14.188;2022-12-18T11:27:31;15.02;;;8.30;;
68475;SDS011;55464;48.266;14.188;2022-12-18T11:30:20;14.60;;;7.85;;
68475;SDS011;55464;48.266;14.188;2022-12-18T11:33:10;14.20;;;7.88;;
68475;SDS011;55464;48.266;14.188;2022-12-18T11:35:57;13.60;;;7.43;;
68475;SDS011;55464;48.266;14.188;2022-12-18T11:38:30;15.65;;;7.45;;
68475;SDS011;55464;48.266;14.188;2022-12-18T11:44:08;16.73;;;8.00;;
68475;SDS011;55464;48.266;14.188;2022-12-18T11:49:27;17.48;;;8.30;;
68475;SDS011;55464;48.266;14.188;2022-12-18T11:54:25;16.30;;;9.70;;
68475;SDS011;55464;48.266;14.188;2022-12-18T11:56:52;16.20;;;9.52;;
68475;SDS011;55464;48.266;14.188;2022-12-18T12:15:16;19.83;;;9.77;;
68475;SDS011;55464;48.266;14.188;2022-12-18T12:23:19;18.92;;;10.63;;
68475;SDS011;55464;48.266;14.188;2022-12-18T12:26:07;21.13;;;11.23;;
68475;SDS011;55464;48.266;14.188;2022-12-18T12:31:16;19.40;;;10.40;;
68475;SDS011;55464;48.266;14.188;2022-12-18T12:33:49;21.23;;;10.95;;
68475;SDS011;55464;48.266;14.188;2022-12-18T12:36:48;20.92;;;11.57;;
68475;SDS011;55464;48.266;14.188;2022-12-18T12:39:37;24.13;;;12.30;;
68475;SDS011;55464;48.266;14.188;2022-12-18T12:42:06;20.63;;;10.98;;
68475;SDS011;55464;48.266;14.188;2022-12-18T12:44:59;19.25;;;10.50;;
68475;SDS011;55464;48.266;14.188;2022-12-18T12:47:31;18.48;;;11.32;;
68475;SDS011;55464;48.266;14.188;2022-12-18T12:50:12;23.17;;;11.95;;
68475;SDS011;55464;48.266;14.188;2022-12-18T12:52:44;19.92;;;11.40;;
68475;SDS011;55464;48.266;14.188;2022-12-18T12:55:18;24.13;;;11.35;;
68475;SDS011;55464;48.266;14.188;2022-12-18T12:58:02;24.05;;;12.40;;
68475;SDS011;55464;48.266;14.188;2022-12-18T13:00:47;26.13;;;12.48;;
68475;SDS011;55464;48.266;14.188;2022-12-18T13:06:53;23.00;;;11.70;;
68475;SDS011;55464;48.266;14.188;2022-12-18T13:13:09;19.00;;;11.07;;
68475;SDS011;55464;48.266;14.188;2022-12-18T13:15:44;25.33;;;12.13;;
68475;SDS011;55464;48.266;14.188;2022-12-18T13:18:13;20.52;;;11.63;;
68475;SDS011;55464;48.266;14.188;2022-12-18T13:20:40;26.83;;;13.35;;
68475;SDS011;55464;48.266;14.188;2022-12-18T13:25:54;26.50;;;13.07;;
68475;SDS011;55464;48.266;14.188;2022-12-18T13:30:57;24.83;;;13.30;;
68475;SDS011;55464;48.266;14.188;2022-12-18T13:33:34;23.50;;;12.73;;
68475;SDS011;55464;48.266;14.188;2022-12-18T13:36:12;22.90;;;12.65;;
68475;SDS011;55464;48.266;14.188;2022-12-18T13:39:10;30.13;;;12.18;;
68475;SDS011;55464;48.266;14.188;2022-12-18T13:41:43;25.88;;;14.00;;
68475;SDS011;55464;48.266;14.188;2022-12-18T13:44:12;26.08;;;12.88;;
68475;SDS011;55464;48.266;14.188;2022-12-18T13:46:47;24.05;;;12.85;;
68475;SDS011;55464;48.266;14.188;2022-12-18T13:51:55;24.45;;;11.80;;
68475;SDS011;55464;48.266;14.188;2022-12-18T13:56:50;28.27;;;12.88;;
68475;SDS011;55464;48.266;14.188;2022-12-18T14:01:51;30.48;;;13.88;;
68475;SDS011;55464;48.266;14.188;2022-12-18T14:04:22;32.05;;;13.82;;
68475;SDS011;55464;48.266;14.188;2022-12-18T14:07:12;27.85;;;14.05;;
68475;SDS011;55464;48.266;14.188;2022-12-18T14:09:49;28.15;;;14.73;;
68475;SDS011;55464;48.266;14.188;2022-12-18T14:12:25;26.88;;;13.43;;
68475;SDS011;55464;48.266;14.188;2022-12-18T14:15:20;33.00;;;14.77;;
68475;SDS011;55464;48.266;14.188;2022-12-18T14:20:51;27.67;;;13.93;;
68475;SDS011;55464;48.266;14.188;2022-12-18T14:25:55;30.80;;;14.05;;
68475;SDS011;55464;48.266;14.188;2022-12-18T14:28:21;33.38;;;15.40;;
68475;SDS011;55464;48.266;14.188;2022-12-18T14:30:47;32.03;;;13.95;;
68475;SDS011;55464;48.266;14.188;2022-12-18T14:33:15;38.50;;;14.65;;
68475;SDS011;55464;48.266;14.188;2022-12-18T14:35:58;36.38;;;13.90;;
68475;SDS011;55464;48.266;14.188;2022-12-18T14:43:23;28.10;;;12.15;;
68475;SDS011;55464;48.266;14.188;2022-12-18T14:45:49;30.08;;;13.05;;
68475;SDS011;55464;48.266;14.188;2022-12-18T14:48:17;24.83;;;11.75;;
68475;SDS011;55464;48.266;14.188;2022-12-18T14:50:44;30.98;;;13.50;;
68475;SDS011;55464;48.266;14.188;2022-12-18T14:53:20;60.83;;;22.45;;
68475;SDS011;55464;48.266;14.188;2022-12-18T14:55:52;48.90;;;28.05;;
68475;SDS011;55464;48.266;14.188;2022-12-18T14:58:18;35.15;;;16.92;;
68475;SDS011;55464;48.266;14.188;2022-12-18T15:00:43;32.30;;;16.08;;
68475;SDS011;55464;48.266;14.188;2022-12-18T15:03:09;35.30;;;17.42;;
68475;SDS011;55464;48.266;14.188;2022-12-18T15:05:35;35.50;;;16.23;;
68475;SDS011;55464;48.266;14.188;2022-12-18T15:08:01;39.88;;;18.58;;
68475;SDS011;55464;48.266;14.188;2022-12-18T15:10:28;26.85;;;13.48;;
68475;SDS011;55464;48.266;14.188;2022-12-18T15:20:40;26.55;;;12.98;;
68475;SDS011;55464;48.266;14.188;2022-12-18T15:23:15;26.85;;;14.75;;
68475;SDS011;55464;48.266;14.188;2022-12-18T15:25:47;32.28;;;17.40;;
68475;SDS011;55464;48.266;14.188;2022-12-18T15:28:22;35.90;;;16.80;;
68475;SDS011;55464;48.266;14.188;2022-12-18T15:33:44;32.05;;;14.82;;
68475;SDS011;55464;48.266;14.188;2022-12-18T15:36:25;29.75;;;14.07;;
68475;SDS011;55464;48.266;14.188;2022-12-18T15:38:55;29.95;;;12.90;;
68475;SDS011;55464;48.266;14.188;2022-12-18T15:41:22;26.33;;;12.63;;
68475;SDS011;55464;48.266;14.188;2022-12-18T15:43:49;26.33;;;12.07;;
68475;SDS011;55464;48.266;14.188;2022-12-18T15:46:21;25.00;;;11.32;;
68475;SDS011;55464;48.266;14.188;2022-12-18T15:48:49;26.25;;;12.88;;
68475;SDS011;55464;48.266;14.188;2022-12-18T15:51:17;28.08;;;12.90;;
68475;SDS011;55464;48.266;14.188;2022-12-18T15:53:48;26.60;;;12.82;;
68475;SDS011;55464;48.266;14.188;2022-12-18T15:56:16;24.90;;;11.60;;
68475;SDS011;55464;48.266;14.188;2022-12-18T15:59:00;24.17;;;12.05;;
68475;SDS011;55464;48.266;14.188;2022-12-18T16:01:28;31.08;;;13.50;;
68475;SDS011;55464;48.266;14.188;2022-12-18T16:03:55;32.38;;;14.32;;
68475;SDS011;55464;48.266;14.188;2022-12-18T16:06:22;29.27;;;13.50;;
68475;SDS011;55464;48.266;14.188;2022-12-18T16:08:48;31.10;;;13.63;;
68475;SDS011;55464;48.266;14.188;2022-12-18T16:11:24;32.20;;;14.32;;
68475;SDS011;55464;48.266;14.188;2022-12-18T16:14:11;30.27;;;12.40;;
68475;SDS011;55464;48.266;14.188;2022-12-18T16:16:44;29.35;;;13.48;;
68475;SDS011;55464;48.266;14.188;2022-12-18T16:19:11;28.13;;;13.02;;
68475;SDS011;55464;48.266;14.188;2022-12-18T16:21:37;27.80;;;13.13;;
68475;SDS011;55464;48.266;14.188;2022-12-18T16:24:03;27.13;;;12.98;;
68475;SDS011;55464;48.266;14.188;2022-12-18T16:26:29;32.83;;;12.82;;
68475;SDS011;55464;48.266;14.188;2022-12-18T16:28:57;29.33;;;12.48;;
68475;SDS011;55464;48.266;14.188;2022-12-18T16:31:23;25.33;;;12.18;;
68475;SDS011;55464;48.266;14.188;2022-12-18T16:33:49;27.58;;;12.68;;
68475;SDS011;55464;48.266;14.188;2022-12-18T16:36:14;25.60;;;12.57;;
68475;SDS011;55464;48.266;14.188;2022-12-18T16:38:40;29.60;;;13.77;;
68475;SDS011;55464;48.266;14.188;2022-12-18T16:41:14;30.17;;;13.63;;